createdAt,value
2023-04-03T00:01:24.288Z,78.52
2023-04-03T00:03:53.991Z,78.39
2023-04-03T00:06:22.570Z,78.21
2023-04-03T00:08:51.648Z,78.09
2023-04-03T00:11:21.022Z,77.98
2023-04-03T00:13:49.038Z,77.80
2023-04-03T00:16:17.227Z,77.69
2023-04-03T00:18:47.539Z,77.44
2023-04-03T00:21:17.394Z,77.39
2023-04-03T00:23:45.587Z,77.36
2023-04-03T00:26:14.081Z,77.52
2023-04-03T00:28:42.238Z,77.70
2023-04-03T00:31:10.484Z,77.91
2023-04-03T00:33:40.420Z,77.49
2023-04-03T00:36:10.098Z,77.48
2023-04-03T00:38:40.432Z,77.33
2023-04-03T00:41:08.712Z,77.19
2023-04-03T00:43:36.818Z,77.08
2023-04-03T00:46:05.550Z,76.90
2023-04-03T00:48:36.172Z,76.63
2023-04-03T00:51:05.011Z,76.66
2023-04-03T00:53:36.592Z,76.81
2023-04-03T00:56:08.516Z,76.71
2023-04-03T00:58:43.281Z,76.81
2023-04-03T01:01:14.944Z,76.92
2023-04-03T01:03:43.138Z,76.92
2023-04-03T01:06:11.289Z,77.21
2023-04-03T01:08:39.772Z,77.33
2023-04-03T01:11:09.304Z,77.42
2023-04-03T01:13:37.640Z,77.61
2023-04-03T01:16:09.869Z,77.79
2023-04-03T01:18:40.965Z,77.83
2023-04-03T01:21:50.037Z,77.96
2023-04-03T01:24:29.811Z,78.11
2023-04-03T01:26:59.520Z,78.12
2023-04-03T01:29:28.363Z,78.50
2023-04-03T01:32:01.000Z,78.72
2023-04-03T01:34:30.345Z,78.72
2023-04-03T01:36:59.827Z,78.80
2023-04-03T01:39:30.265Z,79.09
2023-04-03T01:42:00.188Z,79.37
2023-04-03T01:44:28.398Z,80.11
2023-04-03T01:46:58.427Z,80.32
2023-04-03T01:49:29.366Z,80.12
2023-04-03T01:51:58.162Z,80.41
2023-04-03T01:54:28.037Z,80.71
2023-04-03T01:56:57.447Z,80.63
2023-04-03T01:59:27.635Z,80.61
2023-04-03T02:01:55.725Z,80.87
2023-04-03T02:04:26.255Z,80.94
2023-04-03T02:06:54.634Z,80.99
2023-04-03T02:09:22.950Z,81.05
2023-04-03T02:11:51.970Z,81.24
2023-04-03T02:14:20.023Z,81.86
2023-04-03T02:16:48.609Z,82.78
2023-04-03T02:19:17.282Z,82.89
2023-04-03T02:21:46.852Z,82.93
2023-04-03T02:24:14.991Z,83.00
2023-04-03T02:26:43.130Z,82.75
2023-04-03T02:29:11.318Z,82.95
2023-04-03T02:31:40.050Z,83.38
2023-04-03T02:34:08.471Z,83.42
2023-04-03T02:36:36.844Z,83.43
2023-04-03T02:39:06.289Z,83.42
2023-04-03T02:41:36.703Z,83.33
2023-04-03T02:44:06.110Z,83.32
2023-04-03T02:46:35.468Z,83.23
2023-04-03T02:49:03.645Z,83.25
2023-04-03T02:51:32.015Z,83.48
2023-04-03T02:54:00.670Z,84.07
2023-04-03T02:56:30.156Z,84.43
2023-04-03T02:58:59.002Z,84.59
2023-04-03T03:01:29.750Z,84.86
2023-04-03T03:03:58.066Z,84.92
2023-04-03T03:06:26.687Z,84.84
2023-04-03T03:08:55.524Z,84.99
2023-04-03T03:11:23.824Z,85.02
2023-04-03T03:13:54.324Z,85.05
2023-04-03T03:16:22.869Z,84.98
2023-04-03T03:18:51.009Z,84.93
2023-04-03T03:21:19.570Z,84.91
2023-04-03T03:23:47.652Z,84.84
2023-04-03T03:26:16.437Z,84.95
2023-04-03T03:28:44.676Z,85.27
2023-04-03T03:31:16.246Z,85.51
2023-04-03T03:33:44.695Z,85.76
2023-04-03T03:36:12.895Z,85.97
2023-04-03T03:38:41.408Z,86.02
2023-04-03T03:41:10.060Z,85.97
2023-04-03T03:43:38.318Z,85.92
2023-04-03T03:46:06.723Z,85.92
2023-04-03T03:48:36.438Z,86.05
2023-04-03T03:51:06.676Z,86.19
2023-04-03T03:53:34.663Z,86.14
2023-04-03T03:56:03.097Z,86.23
2023-04-03T03:58:31.167Z,86.32
2023-04-03T04:01:02.854Z,86.43
2023-04-03T04:03:31.636Z,86.45
2023-04-03T04:06:01.252Z,86.44
2023-04-03T04:08:29.587Z,86.48
2023-04-03T04:10:57.950Z,86.54
2023-04-03T04:13:26.669Z,86.55
2023-04-03T04:15:55.556Z,86.65
2023-04-03T04:18:25.908Z,86.60
2023-04-03T04:20:54.208Z,86.57
2023-04-03T04:23:23.756Z,86.65
2023-04-03T04:25:52.054Z,86.60
2023-04-03T04:28:20.444Z,86.76
2023-04-03T04:30:48.520Z,86.83
2023-04-03T04:33:17.375Z,86.93
2023-04-03T04:35:45.636Z,87.05
2023-04-03T04:38:13.746Z,87.10
2023-04-03T04:40:43.154Z,87.08
2023-04-03T04:43:11.871Z,87.21
2023-04-03T04:45:40.328Z,87.22
2023-04-03T04:48:08.613Z,87.34
2023-04-03T04:50:36.731Z,87.44
2023-04-03T04:53:05.941Z,87.60
2023-04-03T04:55:34.442Z,87.91
2023-04-03T04:58:04.449Z,88.31
2023-04-03T05:00:32.452Z,88.78
2023-04-03T05:03:00.926Z,89.90
2023-04-03T05:05:29.014Z,89.93
2023-04-03T05:07:57.046Z,89.66
2023-04-03T05:10:25.387Z,89.30
2023-04-03T05:12:53.930Z,88.74
2023-04-03T05:15:23.496Z,87.56
2023-04-03T05:17:52.193Z,86.53
2023-04-03T05:20:20.615Z,85.26
2023-04-03T05:22:48.907Z,83.90
2023-04-03T05:25:17.344Z,82.96
2023-04-03T05:27:46.417Z,81.82
2023-04-03T05:30:15.453Z,79.57
2023-04-03T05:32:45.075Z,78.48
2023-04-03T05:35:13.791Z,77.25
2023-04-03T05:37:42.093Z,76.20
2023-04-03T05:40:11.416Z,75.24
2023-04-03T05:42:39.400Z,72.88
2023-04-03T05:45:08.639Z,71.13
2023-04-03T05:47:36.899Z,70.28
2023-04-03T05:50:07.514Z,69.70
2023-04-03T05:52:37.932Z,69.19
2023-04-03T05:55:07.745Z,69.23
2023-04-03T05:57:36.390Z,69.14
2023-04-03T06:00:06.870Z,68.82
2023-04-03T06:02:38.697Z,67.70
2023-04-03T06:05:10.249Z,67.54
2023-04-03T06:07:39.498Z,66.46
2023-04-03T06:10:10.727Z,67.23
2023-04-03T06:12:38.665Z,66.94
2023-04-03T06:15:09.162Z,67.53
2023-04-03T06:17:37.367Z,67.30
2023-04-03T06:20:06.608Z,67.33
2023-04-03T06:22:36.503Z,66.23
2023-04-03T06:25:05.807Z,66.18
2023-04-03T06:27:34.048Z,65.52
2023-04-03T06:30:02.093Z,64.15
2023-04-03T06:32:30.262Z,64.15
2023-04-03T06:34:58.499Z,65.32
2023-04-03T06:37:29.136Z,65.66
2023-04-03T06:40:02.388Z,67.05
2023-04-03T06:42:30.859Z,65.76
2023-04-03T06:44:58.920Z,65.48
2023-04-03T06:47:29.608Z,64.72
2023-04-03T06:49:58.898Z,64.50
2023-04-03T06:52:27.890Z,63.98
2023-04-03T06:54:58.123Z,63.18
2023-04-03T06:57:28.745Z,62.88
2023-04-03T06:59:57.680Z,62.61
2023-04-03T07:02:28.198Z,61.92
2023-04-03T07:04:56.739Z,62.22
2023-04-03T07:07:25.311Z,61.57
2023-04-03T07:09:53.335Z,61.18
2023-04-03T07:12:21.731Z,59.90
2023-04-03T07:14:52.121Z,58.00
2023-04-03T07:17:20.444Z,58.33
2023-04-03T07:19:48.707Z,58.94
2023-04-03T07:22:16.944Z,57.67
2023-04-03T07:24:45.114Z,56.93
2023-04-03T07:27:15.089Z,60.12
2023-04-03T07:29:44.122Z,56.67
2023-04-03T07:32:14.266Z,54.66
2023-04-03T07:34:43.321Z,54.60
2023-04-03T07:37:13.766Z,55.16
2023-04-03T07:39:42.946Z,56.65
2023-04-03T07:42:11.209Z,56.33
2023-04-03T07:44:39.663Z,58.08
2023-04-03T07:47:07.881Z,58.01
2023-04-03T07:49:40.702Z,59.62
2023-04-03T07:52:10.444Z,59.08
2023-04-03T07:54:39.061Z,59.34
2023-04-03T07:57:07.648Z,60.94
2023-04-03T07:59:36.258Z,57.47
2023-04-03T08:02:06.301Z,55.21
2023-04-03T08:04:34.637Z,55.01
2023-04-03T08:07:04.900Z,54.43
2023-04-03T08:09:33.923Z,53.07
2023-04-03T08:12:02.059Z,51.97
2023-04-03T08:14:35.532Z,50.59
2023-04-03T08:17:06.155Z,51.46
2023-04-03T08:19:34.363Z,49.68
2023-04-03T08:22:04.528Z,51.77
2023-04-03T08:24:32.842Z,51.85
2023-04-03T08:27:02.527Z,52.94
2023-04-03T08:29:32.934Z,53.50
2023-04-03T08:32:01.964Z,53.48
2023-04-03T08:34:30.044Z,53.90
2023-04-03T08:36:59.039Z,54.05
2023-04-03T08:39:28.621Z,55.47
2023-04-03T08:42:00.112Z,56.04
2023-04-03T08:44:33.887Z,55.94
2023-04-03T08:47:09.963Z,56.91
2023-04-03T08:49:44.314Z,57.43
2023-04-03T08:52:16.141Z,57.39
2023-04-03T08:54:52.935Z,57.49
2023-04-03T08:57:27.423Z,57.26
2023-04-03T08:59:55.732Z,56.93
2023-04-03T09:02:28.547Z,57.82
2023-04-03T09:04:56.764Z,57.56
2023-04-03T09:07:32.644Z,56.79
2023-04-03T09:10:04.721Z,57.31
2023-04-03T09:12:36.496Z,57.52
2023-04-03T09:15:31.283Z,55.44
2023-04-03T09:18:07.827Z,55.23
2023-04-03T09:20:43.678Z,54.69
2023-04-03T09:23:19.015Z,55.77
2023-04-03T09:25:48.979Z,56.73
2023-04-03T09:28:17.045Z,57.33
2023-04-03T09:30:45.554Z,57.12
2023-04-03T09:33:14.699Z,57.31
2023-04-03T09:35:48.048Z,56.83
2023-04-03T09:38:19.412Z,56.70
2023-04-03T09:40:50.557Z,54.97
2023-04-03T09:43:27.433Z,54.29
2023-04-03T09:45:56.929Z,53.87
2023-04-03T09:48:26.294Z,53.25
2023-04-03T09:51:02.929Z,52.04
2023-04-03T09:53:34.660Z,52.73
2023-04-03T09:56:06.766Z,53.14
2023-04-03T09:58:49.648Z,53.20
2023-04-03T10:01:31.234Z,53.46
2023-04-03T10:04:08.789Z,50.85
2023-04-03T10:06:41.620Z,52.06
2023-04-03T10:09:23.712Z,53.38
2023-04-03T10:12:05.728Z,52.28
2023-04-03T10:14:34.876Z,49.34
2023-04-03T10:17:15.378Z,49.76
2023-04-03T10:19:45.515Z,49.02
2023-04-03T10:22:22.337Z,49.06
2023-04-03T10:24:55.346Z,48.23
2023-04-03T10:27:34.038Z,49.34
2023-04-03T10:30:12.033Z,49.01
2023-04-03T10:32:51.593Z,50.61
2023-04-03T10:35:41.322Z,52.23
2023-04-03T10:38:19.051Z,50.47
2023-04-03T10:40:55.121Z,50.70
2023-04-03T10:43:31.800Z,49.90
2023-04-03T10:46:04.999Z,49.95
2023-04-03T10:48:41.777Z,50.34
2023-04-03T10:51:18.417Z,51.21
2023-04-03T10:53:54.586Z,51.03
2023-04-03T10:56:32.309Z,50.05
2023-04-03T10:59:09.389Z,49.85
2023-04-03T11:01:41.437Z,50.12
2023-04-03T11:04:10.988Z,50.36
2023-04-03T11:06:46.209Z,50.00
2023-04-03T11:09:24.374Z,48.56
2023-04-03T11:11:53.672Z,48.32
2023-04-03T11:14:28.346Z,49.84
2023-04-03T11:17:06.530Z,49.76
2023-04-03T11:19:37.770Z,50.68
2023-04-03T11:22:11.089Z,49.29
2023-04-03T11:24:42.753Z,49.54
2023-04-03T11:27:15.469Z,49.06
2023-04-03T11:29:46.461Z,49.29
2023-04-03T11:32:31.297Z,49.49
2023-04-03T11:35:01.832Z,48.83
2023-04-03T11:37:36.669Z,48.74
2023-04-03T11:40:08.220Z,49.08
2023-04-03T11:42:40.503Z,48.08
2023-04-03T11:45:25.727Z,46.58
2023-04-03T11:48:09.930Z,47.86
2023-04-03T11:50:48.082Z,47.53
2023-04-03T11:53:35.696Z,46.80
2023-04-03T11:56:06.631Z,46.56
2023-04-03T11:58:35.898Z,47.47
2023-04-03T12:01:11.058Z,47.88
2023-04-03T12:04:09.207Z,48.89
2023-04-03T12:06:57.412Z,47.75
2023-04-03T12:09:42.272Z,47.69
2023-04-03T12:12:36.247Z,48.66
2023-04-03T12:15:23.816Z,48.30
2023-04-03T12:17:53.686Z,47.59
2023-04-03T12:20:48.751Z,48.01
2023-04-03T12:23:34.845Z,48.34
2023-04-03T12:26:22.981Z,48.81
2023-04-03T12:28:53.845Z,48.54
2023-04-03T12:31:23.140Z,49.55
2023-04-03T12:34:10.472Z,48.76
2023-04-03T12:36:49.188Z,49.68
2023-04-03T12:39:33.339Z,49.95
2023-04-03T12:42:10.987Z,50.42
2023-04-03T12:44:47.965Z,50.24
2023-04-03T12:47:25.853Z,50.36
2023-04-03T12:49:57.924Z,50.19
2023-04-03T12:52:37.853Z,51.25
2023-04-03T12:55:14.118Z,50.10
2023-04-03T12:57:44.125Z,50.32
2023-04-03T13:00:34.620Z,49.86
2023-04-03T13:03:06.361Z,50.48
2023-04-03T13:05:37.528Z,50.31
2023-04-03T13:08:12.896Z,50.74
2023-04-03T13:10:54.913Z,50.88
2023-04-03T13:13:25.185Z,51.78
2023-04-03T13:15:55.448Z,52.09
2023-04-03T13:18:29.426Z,51.56
2023-04-03T13:21:03.567Z,51.78
2023-04-03T13:23:32.528Z,51.87
2023-04-03T13:26:04.774Z,51.49
2023-04-03T13:28:34.274Z,50.57
2023-04-03T13:31:11.269Z,50.54
2023-04-03T13:33:45.977Z,49.81
2023-04-03T13:36:20.293Z,50.40
2023-04-03T13:39:01.275Z,50.32
2023-04-03T13:41:34.684Z,49.88
2023-04-03T13:44:32.178Z,50.53
2023-04-03T13:47:01.978Z,51.08
2023-04-03T13:49:33.828Z,50.57
2023-04-03T13:52:07.924Z,50.10
2023-04-03T13:54:38.686Z,50.33
2023-04-03T13:57:15.455Z,50.30
2023-04-03T13:59:44.118Z,50.60
2023-04-03T14:02:17.499Z,50.97
2023-04-03T14:04:54.172Z,51.20
2023-04-03T14:07:24.672Z,51.47
2023-04-03T14:09:53.211Z,51.56
2023-04-03T14:12:31.910Z,51.91
2023-04-03T14:15:00.840Z,51.13
2023-04-03T14:17:30.518Z,51.86
2023-04-03T14:20:01.844Z,51.61
2023-04-03T14:22:33.251Z,51.94
2023-04-03T14:25:02.183Z,51.95
2023-04-03T14:27:32.647Z,52.38
2023-04-03T14:30:01.566Z,52.70
2023-04-03T14:32:30.159Z,53.04
2023-04-03T14:34:59.020Z,52.85
2023-04-03T14:37:30.457Z,52.85
2023-04-03T14:40:01.748Z,53.88
2023-04-03T14:42:32.278Z,54.09
2023-04-03T14:45:01.374Z,54.22
2023-04-03T14:47:32.559Z,54.96
2023-04-03T14:50:02.156Z,55.03
2023-04-03T14:52:32.949Z,55.09
2023-04-03T14:55:04.828Z,55.50
2023-04-03T14:57:34.755Z,55.84
2023-04-03T15:00:04.725Z,55.75
2023-04-03T15:02:35.183Z,55.78
2023-04-03T15:05:06.576Z,54.91
2023-04-03T15:07:38.513Z,55.01
2023-04-03T15:10:19.163Z,55.26
2023-04-03T15:12:48.118Z,54.87
2023-04-03T15:15:23.769Z,54.59
2023-04-03T15:17:54.840Z,54.19
2023-04-03T15:20:25.427Z,54.52
2023-04-03T15:22:53.522Z,54.00
2023-04-03T15:25:26.617Z,54.51
2023-04-03T15:27:54.841Z,55.27
2023-04-03T15:30:23.264Z,54.69
2023-04-03T15:32:51.871Z,53.99
2023-04-03T15:35:20.195Z,54.36
2023-04-03T15:37:49.146Z,55.80
2023-04-03T15:40:18.653Z,53.58
2023-04-03T15:42:48.632Z,54.05
2023-04-03T15:45:17.160Z,54.66
2023-04-03T15:47:45.432Z,54.70
2023-04-03T15:50:13.533Z,54.73
2023-04-03T15:52:42.904Z,54.71
2023-04-03T15:55:11.387Z,54.76
2023-04-03T16:00:17.285Z,55.20
2023-04-03T16:02:45.382Z,55.61
2023-04-03T16:05:13.777Z,56.20
2023-04-03T16:07:42.243Z,56.75
2023-04-03T16:10:11.762Z,57.11
2023-04-03T16:12:40.053Z,56.69
2023-04-03T16:15:09.228Z,56.84
2023-04-03T16:17:39.952Z,57.23
2023-04-03T16:20:10.437Z,57.16
2023-04-03T16:22:39.081Z,57.38
2023-04-03T16:25:08.871Z,57.73
2023-04-03T16:27:36.965Z,58.47
2023-04-03T16:30:07.810Z,59.02
2023-04-03T16:32:36.184Z,59.72
2023-04-03T16:35:08.189Z,60.32
2023-04-03T16:37:36.252Z,60.71
2023-04-03T16:40:06.093Z,61.46
2023-04-03T16:42:36.601Z,61.95
2023-04-03T16:45:08.452Z,62.03
2023-04-03T16:47:37.115Z,62.37
2023-04-03T16:50:07.881Z,62.78
2023-04-03T16:52:36.184Z,62.61
2023-04-03T16:55:04.954Z,62.45
2023-04-03T16:57:33.107Z,62.35
2023-04-03T17:00:01.326Z,62.46
2023-04-03T17:02:30.247Z,62.74
2023-04-03T17:04:58.559Z,63.19
2023-04-03T17:07:28.232Z,63.49
2023-04-03T17:09:56.934Z,63.65
2023-04-03T17:12:25.298Z,63.74
2023-04-03T17:14:53.744Z,63.87
2023-04-03T17:17:24.470Z,64.11
2023-04-03T17:19:54.849Z,63.58
2023-04-03T17:22:23.272Z,63.60
2023-04-03T17:24:52.938Z,63.60
2023-04-03T17:27:21.229Z,63.53
2023-04-03T17:29:49.301Z,63.62
2023-04-03T17:32:17.633Z,63.81
2023-04-03T17:34:47.772Z,64.35
2023-04-03T17:37:16.417Z,64.41
2023-04-03T17:39:46.998Z,64.71
2023-04-03T17:42:17.142Z,65.03
2023-04-03T17:44:45.298Z,65.42
2023-04-03T17:47:14.618Z,65.46
2023-04-03T17:49:43.032Z,65.66
2023-04-03T17:52:11.584Z,65.46
2023-04-03T17:54:39.952Z,65.58
2023-04-03T17:57:08.897Z,65.72
2023-04-03T17:59:38.702Z,65.89
2023-04-03T18:02:08.387Z,65.92
2023-04-03T18:04:36.934Z,65.75
2023-04-03T18:07:09.431Z,65.85
2023-04-03T18:09:37.970Z,66.05
2023-04-03T18:12:10.610Z,66.02
2023-04-03T18:14:40.454Z,66.20
2023-04-03T18:17:09.533Z,66.49
2023-04-03T18:19:38.961Z,66.77
2023-04-03T18:22:10.283Z,66.80
2023-04-03T18:24:39.617Z,67.15
2023-04-03T18:27:11.801Z,67.33
2023-04-03T18:29:43.166Z,67.45
2023-04-03T18:32:13.635Z,67.67
2023-04-03T18:34:43.866Z,67.64
2023-04-03T18:37:12.392Z,67.83
2023-04-03T18:39:40.895Z,68.04
2023-04-03T18:42:11.087Z,68.39
2023-04-03T18:44:42.689Z,68.37
2023-04-03T18:47:11.775Z,68.56
2023-04-03T18:49:41.878Z,68.72
2023-04-03T18:52:11.843Z,68.99
2023-04-03T18:54:41.058Z,69.17
2023-04-03T18:57:11.502Z,69.95
2023-04-03T18:59:42.127Z,69.85
2023-04-03T19:02:11.084Z,69.29
2023-04-03T19:04:39.744Z,69.13
2023-04-03T19:07:10.163Z,69.33
2023-04-03T19:09:38.653Z,69.35
2023-04-03T19:12:07.443Z,69.38
2023-04-03T19:14:35.994Z,69.37
2023-04-03T19:17:09.326Z,69.69
2023-04-03T19:19:38.134Z,69.98
2023-04-03T19:22:07.955Z,70.14
2023-04-03T19:24:36.621Z,70.42
2023-04-03T19:27:05.290Z,70.39
2023-04-03T19:29:33.581Z,70.74
2023-04-03T19:32:01.899Z,70.91
2023-04-03T19:34:31.810Z,71.16
2023-04-03T19:37:00.460Z,71.22
2023-04-03T19:39:30.947Z,71.56
2023-04-03T19:41:59.334Z,71.83
2023-04-03T19:44:27.431Z,72.12
2023-04-03T19:46:56.353Z,72.45
2023-04-03T19:49:24.433Z,72.52
2023-04-03T19:51:54.388Z,72.83
2023-04-03T19:54:23.699Z,72.92
2023-04-03T19:56:52.106Z,73.19
2023-04-03T19:59:20.258Z,73.30
2023-04-03T20:01:48.435Z,73.50
2023-04-03T20:04:17.304Z,73.78
2023-04-03T20:06:47.568Z,74.02
2023-04-03T20:09:18.233Z,74.19
2023-04-03T20:11:47.521Z,74.32
2023-04-03T20:14:18.932Z,74.53
2023-04-03T20:16:48.586Z,74.63
2023-04-03T20:19:16.951Z,74.76
2023-04-03T20:21:45.281Z,74.88
2023-04-03T20:24:15.638Z,74.98
2023-04-03T20:26:47.292Z,74.97
2023-04-03T20:29:16.797Z,74.97
2023-04-03T20:31:46.772Z,75.18
2023-04-03T20:34:16.028Z,75.28
2023-04-03T20:36:49.664Z,75.40
2023-04-03T20:39:19.498Z,75.65
2023-04-03T20:41:49.941Z,75.71
2023-04-03T20:44:20.494Z,75.77
2023-04-03T20:46:52.771Z,75.74
2023-04-03T20:49:22.826Z,75.85
2023-04-03T20:51:52.276Z,75.88
2023-04-03T20:54:20.743Z,75.88
2023-04-03T20:56:50.652Z,75.93
2023-04-03T20:59:18.892Z,76.04
2023-04-03T21:01:48.916Z,76.19
2023-04-03T21:04:23.159Z,76.39
2023-04-03T21:07:28.530Z,76.53
2023-04-03T21:10:33.819Z,76.68
2023-04-03T21:13:39.650Z,76.72
2023-04-03T21:16:07.724Z,76.82
2023-04-03T21:19:03.815Z,76.79
2023-04-03T21:21:32.384Z,76.80
2023-04-03T21:24:02.367Z,76.88
2023-04-03T21:26:31.269Z,76.89
2023-04-03T21:29:00.977Z,77.04
2023-04-03T21:31:51.938Z,77.16
2023-04-03T21:34:22.442Z,77.17
2023-04-03T21:36:53.222Z,77.25
2023-04-03T21:39:23.228Z,77.37
2023-04-03T21:41:52.347Z,77.41
2023-04-03T21:44:21.527Z,77.47
2023-04-03T21:46:53.742Z,77.60
2023-04-03T21:49:23.208Z,77.60
2023-04-03T21:51:52.593Z,77.77
2023-04-03T21:54:21.186Z,77.87
2023-04-03T21:56:49.672Z,78.04
2023-04-03T21:59:21.593Z,78.20
2023-04-03T22:01:50.576Z,78.31
2023-04-03T22:04:18.910Z,78.42
2023-04-03T22:06:48.362Z,78.51
2023-04-03T22:09:16.323Z,78.66
2023-04-03T22:11:46.275Z,78.80
2023-04-03T22:14:15.823Z,78.91
2023-04-03T22:16:46.711Z,79.05
2023-04-03T22:19:14.944Z,79.21
2023-04-03T22:21:43.432Z,79.33
2023-04-03T22:24:13.385Z,79.38
2023-04-03T22:26:44.394Z,79.51
2023-04-03T22:29:14.516Z,79.56
2023-04-03T22:31:42.930Z,79.68
2023-04-03T22:34:13.731Z,79.76
2023-04-03T22:36:43.151Z,79.93
2023-04-03T22:39:15.183Z,79.84
2023-04-03T22:41:45.574Z,79.85
2023-04-03T22:44:14.009Z,79.85
2023-04-03T22:46:42.256Z,79.93
2023-04-03T22:49:10.329Z,80.04
2023-04-03T22:51:39.264Z,80.07
2023-04-03T22:54:07.708Z,80.12
2023-04-03T22:56:37.570Z,80.05
2023-04-03T22:59:05.761Z,80.01
2023-04-03T23:01:36.006Z,80.13
2023-04-03T23:04:05.860Z,80.25
2023-04-03T23:06:34.455Z,80.43
2023-04-03T23:09:04.449Z,80.43
2023-04-03T23:11:33.720Z,80.69
2023-04-03T23:14:03.409Z,80.86
2023-04-03T23:16:31.781Z,81.01
2023-04-03T23:19:00.843Z,81.15
2023-04-03T23:21:29.501Z,81.14
2023-04-03T23:23:59.180Z,81.21
2023-04-03T23:26:27.758Z,81.37
2023-04-03T23:28:56.569Z,81.53
2023-04-03T23:31:28.864Z,81.72
2023-04-03T23:33:58.799Z,81.70
2023-04-03T23:36:27.284Z,81.74
2023-04-03T23:38:57.067Z,81.93
2023-04-03T23:41:25.353Z,82.10
2023-04-03T23:43:53.873Z,82.21
2023-04-03T23:46:24.610Z,82.22
2023-04-03T23:48:55.422Z,82.28
2023-04-03T23:51:24.090Z,82.30
2023-04-03T23:53:54.706Z,82.49
2023-04-03T23:56:23.240Z,82.64
2023-04-03T23:58:51.779Z,82.69
